Time;durP1;ratioP1;P1;durP2;ratioP2;P2;SDS_P1;SDS_P2;PMS_P1;PMS_P2;Temp;Humidity;BMP_temperature;BMP_pressure;BME280_temperature;BME280_humidity;BME280_pressure;Samples;Min_cycle;Max_cycle;Signal;HPM_P1;HPM_P2
2021/07/25 00:00:36;;;;;;;38.33;34.37;;;;;;;17.41;100.00;98815.13;2080492;28;20457;-75
2021/07/25 00:01:37;;;;;;;37.03;33.17;;;;;;;17.38;100.00;98815.06;2087697;28;20461;-74
2021/07/25 00:02:38;;;;;;;40.90;34.47;;;;;;;17.34;100.00;98814.94;2088352;28;20465;-75
2021/07/25 00:03:39;;;;;;;37.43;33.57;;;;;;;17.35;100.00;98821.13;2080072;28;20230;-75
2021/07/25 00:04:41;;;;;;;38.83;34.77;;;;;;;17.47;100.00;98819.16;2088368;28;20492;-75
2021/07/25 00:05:42;;;;;;;39.30;34.23;;;;;;;17.43;100.00;98828.28;2089286;28;20230;-75
2021/07/25 00:06:44;;;;;;;39.03;33.57;;;;;;;17.46;100.00;98825.69;2089130;28;20503;-75
2021/07/25 00:07:44;;;;;;;40.93;35.07;;;;;;;17.47;100.00;98824.56;2089110;28;20452;-75
2021/07/25 00:08:46;;;;;;;36.87;33.00;;;;;;;17.45;100.00;98820.63;2088381;28;20448;-74
2021/07/25 00:09:47;;;;;;;40.70;34.07;;;;;;;17.48;100.00;98822.63;2088074;28;20753;-75
2021/07/25 00:10:49;;;;;;;37.67;33.53;;;;;;;17.43;100.00;98823.66;2088255;28;20841;-76
2021/07/25 00:11:50;;;;;;;42.97;35.50;;;;;;;17.37;100.00;98830.44;2088001;28;20226;-75
2021/07/25 00:12:51;;;;;;;37.20;32.43;;;;;;;17.32;100.00;98827.22;2088247;28;20441;-75
2021/07/25 00:13:54;;;;;;;35.80;32.00;;;;;;;17.25;100.00;98827.81;2088501;28;20678;-74
2021/07/25 00:14:57;;;;;;;36.63;32.50;;;;;;;17.21;100.00;98826.94;2088076;28;20931;-75
2021/07/25 00:15:58;;;;;;;36.30;32.40;;;;;;;17.28;100.00;98832.50;2088236;28;20536;-75
2021/07/25 00:16:59;;;;;;;38.23;33.27;;;;;;;17.31;100.00;98831.84;2088700;28;20445;-75
2021/07/25 00:18:00;;;;;;;37.57;33.53;;;;;;;17.35;100.00;98829.22;2089096;28;20234;-75
2021/07/25 00:19:02;;;;;;;38.27;34.07;;;;;;;17.37;100.00;98835.81;2089078;28;20457;-75
2021/07/25 00:20:03;;;;;;;37.23;32.80;;;;;;;17.31;100.00;98834.53;2089210;28;20751;-75
2021/07/25 00:21:05;;;;;;;41.03;35.80;;;;;;;17.26;100.00;98829.38;2088971;28;20498;-75
2021/07/25 00:22:06;;;;;;;36.83;32.97;;;;;;;17.27;100.00;98832.84;2088089;28;20461;-75
2021/07/25 00:23:08;;;;;;;36.70;32.70;;;;;;;17.29;100.00;98833.28;2079701;28;20466;-74
2021/07/25 00:24:09;;;;;;;37.93;33.63;;;;;;;17.31;100.00;98836.44;2079756;28;20478;-74
2021/07/25 00:25:18;;;;;;;35.73;32.13;;;;;;;17.36;100.00;98839.66;2079573;28;20443;-75
2021/07/25 00:26:25;;;;;;;36.37;32.60;;;;;;;17.43;100.00;98834.44;2088361;28;20226;-75
2021/07/25 00:27:29;;;;;;;36.87;33.03;;;;;;;17.45;100.00;98832.19;2088149;28;20816;-75
2021/07/25 00:28:33;;;;;;;41.47;34.90;;;;;;;17.51;100.00;98830.81;2088391;28;20453;-75
2021/07/25 00:29:34;;;;;;;36.50;32.80;;;;;;;17.57;100.00;98830.56;2088993;28;20453;-75
2021/07/25 00:30:36;;;;;;;36.17;32.57;;;;;;;17.56;100.00;98826.28;2088389;28;20990;-74
2021/07/25 00:31:38;;;;;;;36.17;32.20;;;;;;;17.55;100.00;98828.22;2087776;28;20519;-72
2021/07/25 00:32:39;;;;;;;36.50;32.40;;;;;;;17.50;100.00;98831.94;2087992;28;20481;-74
2021/07/25 00:33:41;;;;;;;36.53;32.63;;;;;;;17.52;100.00;98821.56;2088427;28;20500;-74
2021/07/25 00:34:41;;;;;;;36.23;32.53;;;;;;;17.60;100.00;98827.16;2088148;28;20453;-74
2021/07/25 00:35:43;;;;;;;38.40;32.37;;;;;;;17.55;100.00;98819.31;2088230;28;20450;-74
2021/07/25 00:36:44;;;;;;;35.40;31.80;;;;;;;17.50;100.00;98823.84;2088104;28;20313;-75
2021/07/25 00:37:47;;;;;;;34.47;31.07;;;;;;;17.52;100.00;98818.09;2088137;28;20449;-75
2021/07/25 00:38:48;;;;;;;37.13;33.20;;;;;;;17.47;100.00;98813.75;2088451;28;20302;-75
2021/07/25 00:39:49;;;;;;;40.43;33.00;;;;;;;17.50;100.00;98813.06;2080025;28;20446;-74
2021/07/25 00:40:53;;;;;;;38.13;32.63;;;;;;;17.44;100.00;98816.34;2088226;28;20352;-74
2021/07/25 00:41:55;;;;;;;36.80;33.07;;;;;;;17.49;100.00;98811.50;2088642;28;20487;-75
2021/07/25 00:42:55;;;;;;;38.00;33.77;;;;;;;17.41;100.00;98815.13;2088912;28;20488;-75
2021/07/25 00:43:58;;;;;;;36.63;32.93;;;;;;;17.35;100.00;98808.44;2089011;28;20734;-75
2021/07/25 00:44:58;;;;;;;37.60;33.53;;;;;;;17.30;100.00;98811.41;2088773;28;20306;-75
2021/07/25 00:46:02;;;;;;;35.43;32.00;;;;;;;17.34;100.00;98803.38;2087953;28;20449;-75
2021/07/25 00:47:03;;;;;;;36.87;33.23;;;;;;;17.34;100.00;98814.16;2088194;28;20310;-76
2021/07/25 00:48:05;;;;;;;38.77;33.73;;;;;;;17.37;100.00;98814.25;2088858;28;20464;-76
2021/07/25 00:49:06;;;;;;;36.33;32.70;;;;;;;17.38;100.00;98807.75;2087318;28;20222;-76
2021/07/25 00:50:09;;;;;;;40.43;34.03;;;;;;;17.32;100.00;98814.53;2088054;28;20829;-74
2021/07/25 00:51:10;;;;;;;36.27;32.77;;;;;;;17.35;100.00;98804.94;2089045;28;20254;-74
2021/07/25 00:52:11;;;;;;;36.27;32.47;;;;;;;17.44;100.00;98803.66;2087978;28;20533;-76
2021/07/25 00:53:12;;;;;;;36.37;32.37;;;;;;;17.59;100.00;98806.72;2080020;28;20454;-76
2021/07/25 00:54:14;;;;;;;35.93;32.07;;;;;;;17.51;100.00;98801.13;2080093;28;20462;-76
2021/07/25 00:55:15;;;;;;;37.43;32.33;;;;;;;17.46;100.00;98803.28;2080227;28;20227;-76
2021/07/25 00:56:17;;;;;;;36.37;32.73;;;;;;;17.50;100.00;98802.25;2087909;28;20503;-76
2021/07/25 00:57:18;;;;;;;40.03;33.57;;;;;;;17.39;100.00;98801.22;2088320;28;20222;-77
2021/07/25 00:58:19;;;;;;;37.27;33.27;;;;;;;17.40;100.00;98793.91;2087873;28;20469;-76
2021/07/25 00:59:20;;;;;;;35.70;31.97;;;;;;;17.37;100.00;98798.06;2087921;28;20616;-76
2021/07/25 01:00:21;;;;;;;34.97;31.37;;;;;;;17.32;100.00;98792.94;2088082;28;20441;-73
2021/07/25 01:01:23;;;;;;;36.37;32.67;;;;;;;17.31;100.00;98794.09;2087558;28;20283;-76
2021/07/25 01:02:25;;;;;;;36.53;32.73;;;;;;;17.33;100.00;98799.91;2088160;28;21041;-76
2021/07/25 01:03:37;;;;;;;36.73;32.80;;;;;;;17.31;100.00;98794.09;2088857;28;21051;-76
2021/07/25 01:04:43;;;;;;;36.50;32.70;;;;;;;17.22;100.00;98793.47;2088419;28;20486;-73
2021/07/25 01:05:46;;;;;;;35.93;32.17;;;;;;;17.24;100.00;98794.69;2088764;28;20883;-74
2021/07/25 01:06:59;;;;;;;37.37;33.30;;;;;;;17.27;100.00;98798.59;2088189;28;20529;-74
2021/07/25 01:08:04;;;;;;;38.50;32.10;;;;;;;17.25;100.00;98795.47;2087667;28;20954;-74
2021/07/25 01:09:10;;;;;;;37.07;33.20;;;;;;;17.20;100.00;98795.69;2080371;28;20500;-76
2021/07/25 01:10:14;;;;;;;36.97;32.97;;;;;;;17.15;100.00;98791.38;2079937;28;20457;-73
2021/07/25 01:11:17;;;;;;;36.03;32.23;;;;;;;17.14;100.00;98789.00;2087981;28;20445;-74
2021/07/25 01:12:19;;;;;;;36.90;33.00;;;;;;;17.09;100.00;98794.66;2088726;28;20873;-76
2021/07/25 01:13:25;;;;;;;37.77;33.77;;;;;;;17.05;100.00;98794.56;2088706;28;20429;-77
2021/07/25 01:14:28;;;;;;;35.80;32.07;;;;;;;17.03;100.00;98794.13;2088571;28;20457;-76
2021/07/25 01:15:31;;;;;;;40.70;34.00;;;;;;;16.92;100.00;98793.81;2088507;28;20467;-76
2021/07/25 01:16:33;;;;;;;38.97;33.27;;;;;;;16.85;100.00;98792.84;2088004;28;20472;-74
2021/07/25 01:17:35;;;;;;;36.93;33.13;;;;;;;16.83;100.00;98795.91;2088084;28;20461;-76
2021/07/25 01:18:46;;;;;;;38.67;34.30;;;;;;;16.81;100.00;98792.75;2088020;28;20453;-76
2021/07/25 01:19:49;;;;;;;40.47;34.27;;;;;;;16.99;100.00;98798.63;2080664;28;20454;-76
2021/07/25 01:20:51;;;;;;;39.03;33.53;;;;;;;17.01;100.00;98790.97;2080121;28;20505;-77
2021/07/25 01:21:52;;;;;;;38.17;34.07;;;;;;;17.02;100.00;98791.75;2087778;28;20476;-75
2021/07/25 01:22:56;;;;;;;39.00;33.03;;;;;;;16.99;100.00;98787.06;2088674;28;20943;-74
2021/07/25 01:23:59;;;;;;;35.63;32.13;;;;;;;16.92;100.00;98788.44;2089046;28;20321;-77
2021/07/25 01:25:01;;;;;;;36.33;32.70;;;;;;;16.85;100.00;98796.34;2088787;28;20458;-74
2021/07/25 01:26:02;;;;;;;38.70;34.70;;;;;;;16.96;100.00;98791.25;2088837;28;20969;-77
2021/07/25 01:27:04;;;;;;;37.53;33.73;;;;;;;17.01;100.00;98792.91;2088722;28;20805;-76
2021/07/25 01:28:07;;;;;;;38.23;34.07;;;;;;;17.07;100.00;98794.22;2088825;28;20272;-74
2021/07/25 01:29:10;;;;;;;36.80;33.20;;;;;;;17.12;100.00;98797.47;2088361;28;20975;-74
2021/07/25 01:30:13;;;;;;;37.30;33.50;;;;;;;17.19;100.00;98786.03;2088507;28;20453;-74
2021/07/25 01:31:18;;;;;;;38.90;34.63;;;;;;;17.15;100.00;98798.66;2088587;28;20456;-74
2021/07/25 01:32:18;;;;;;;39.07;34.00;;;;;;;17.11;100.00;98784.31;2088575;28;20449;-74
2021/07/25 01:33:25;;;;;;;36.33;32.70;;;;;;;17.14;100.00;98784.41;2088544;28;20451;-74
2021/07/25 01:34:26;;;;;;;41.40;34.40;;;;;;;17.06;100.00;98798.81;2088246;28;20230;-74
2021/07/25 01:35:28;;;;;;;37.70;33.90;;;;;;;16.94;100.00;98802.38;2088543;28;20535;-74
2021/07/25 01:36:30;;;;;;;39.77;35.33;;;;;;;16.83;100.00;98801.28;2088722;28;20524;-74
2021/07/25 01:37:31;;;;;;;40.70;36.50;;;;;;;16.76;100.00;98793.00;2087693;28;20811;-77
2021/07/25 01:38:33;;;;;;;40.40;36.00;;;;;;;16.73;100.00;98796.38;2079966;28;20484;-75
2021/07/25 01:39:33;;;;;;;41.40;36.87;;;;;;;16.74;100.00;98800.66;2087913;28;20263;-75
2021/07/25 01:40:35;;;;;;;39.50;35.30;;;;;;;16.71;100.00;98793.25;2088029;28;20525;-75
2021/07/25 01:41:42;;;;;;;39.83;35.50;;;;;;;16.67;100.00;98795.81;2087955;28;20763;-74
2021/07/25 01:42:44;;;;;;;38.70;34.77;;;;;;;16.64;100.00;98793.03;2087555;28;20449;-74
2021/07/25 01:43:48;;;;;;;38.83;34.87;;;;;;;16.58;100.00;98794.38;2088570;28;20521;-75
2021/07/25 01:44:50;;;;;;;40.17;35.67;;;;;;;16.55;100.00;98787.78;2088585;28;20449;-75
2021/07/25 01:45:51;;;;;;;38.97;34.73;;;;;;;16.60;100.00;98787.56;2087721;28;20556;-75
2021/07/25 01:46:52;;;;;;;45.07;36.73;;;;;;;16.61;100.00;98789.13;2079567;28;20458;-74
2021/07/25 01:47:53;;;;;;;43.57;36.60;;;;;;;16.56;100.00;98796.66;2087623;28;20321;-75
2021/07/25 01:48:54;;;;;;;39.40;34.87;;;;;;;16.54;100.00;98793.50;2088555;28;20465;-74
2021/07/25 01:49:55;;;;;;;38.10;34.10;;;;;;;16.63;100.00;98796.84;2088056;28;20249;-75
2021/07/25 01:50:58;;;;;;;38.10;34.17;;;;;;;16.71;100.00;98798.66;2087805;28;20442;-75
2021/07/25 01:51:59;;;;;;;37.33;33.53;;;;;;;16.81;100.00;98800.84;2088580;28;20543;-75
2021/07/25 01:53:00;;;;;;;38.53;34.40;;;;;;;16.73;100.00;98795.59;2088580;28;20457;-75
2021/07/25 01:54:01;;;;;;;39.03;35.03;;;;;;;16.63;100.00;98805.72;2088642;28;20214;-75
2021/07/25 01:55:03;;;;;;;40.27;36.17;;;;;;;16.55;100.00;98793.16;2088177;28;20944;-75
2021/07/25 01:56:04;;;;;;;40.13;35.60;;;;;;;16.52;100.00;98793.06;2087868;28;20673;-75
2021/07/25 01:57:06;;;;;;;39.83;35.80;;;;;;;16.48;100.00;98800.25;2088557;28;20800;-75
2021/07/25 01:58:06;;;;;;;40.60;36.27;;;;;;;16.47;100.00;98806.78;2088666;28;20234;-75
2021/07/25 01:59:08;;;;;;;40.13;35.80;;;;;;;16.44;100.00;98802.84;2088261;28;20458;-74
2021/07/25 02:00:09;;;;;;;39.73;35.53;;;;;;;16.55;100.00;98803.16;2088592;28;20667;-75
2021/07/25 02:01:12;;;;;;;38.00;33.90;;;;;;;16.65;100.00;98813.44;2089282;28;20463;-74
2021/07/25 02:02:12;;;;;;;39.77;35.20;;;;;;;16.74;100.00;98806.03;2081296;28;20948;-74
2021/07/25 02:03:19;;;;;;;37.60;33.57;;;;;;;16.82;100.00;98813.19;2089550;28;20814;-74
2021/07/25 02:04:20;;;;;;;42.10;34.83;;;;;;;16.79;100.00;98808.50;2090266;28;20692;-74
2021/07/25 02:05:21;;;;;;;37.40;33.30;;;;;;;16.75;100.00;98804.91;2089281;28;20883;-75
2021/07/25 02:06:23;;;;;;;38.83;34.23;;;;;;;16.72;100.00;98799.44;2080594;28;20226;-74
2021/07/25 02:07:27;;;;;;;40.17;33.77;;;;;;;16.72;100.00;98816.38;2089521;28;20483;-74
2021/07/25 02:08:28;;;;;;;36.93;32.93;;;;;;;16.75;100.00;98810.28;2089648;28;20477;-74
2021/07/25 02:09:29;;;;;;;38.27;34.27;;;;;;;16.78;100.00;98801.53;2089448;28;20954;-75
2021/07/25 02:10:30;;;;;;;37.63;33.20;;;;;;;16.84;100.00;98808.22;2089501;28;20230;-75
2021/07/25 02:11:32;;;;;;;36.03;32.30;;;;;;;16.93;100.00;98810.78;2089440;28;20454;-75
2021/07/25 02:12:32;;;;;;;37.00;33.13;;;;;;;16.93;100.00;98797.31;2090025;28;20238;-74
2021/07/25 02:13:34;;;;;;;36.07;32.50;;;;;;;16.97;100.00;98805.50;2089239;28;21049;-75
2021/07/25 02:14:36;;;;;;;39.67;33.63;;;;;;;17.01;100.00;98798.28;2089465;28;20683;-75
2021/07/25 02:15:37;;;;;;;36.27;32.63;;;;;;;16.97;100.00;98795.50;2089817;28;20518;-73
2021/07/25 02:16:38;;;;;;;37.47;33.57;;;;;;;16.93;100.00;98803.47;2089281;28;20458;-74
2021/07/25 02:17:40;;;;;;;36.40;32.53;;;;;;;17.00;100.00;98805.59;2089375;28;20449;-75
2021/07/25 02:18:41;;;;;;;37.73;33.83;;;;;;;17.00;100.00;98794.03;2090093;28;20219;-74
2021/07/25 02:19:42;;;;;;;35.83;31.93;;;;;;;17.04;100.00;98795.69;2090050;28;20990;-75
2021/07/25 02:20:43;;;;;;;36.07;32.43;;;;;;;17.06;100.00;98793.44;2089151;28;20226;-75
2021/07/25 02:21:46;;;;;;;36.83;32.97;;;;;;;17.13;100.00;98787.47;2081141;28;20497;-74
2021/07/25 02:22:46;;;;;;;38.23;33.30;;;;;;;17.15;100.00;98795.97;2089463;28;20302;-74
2021/07/25 02:23:48;;;;;;;38.30;33.67;;;;;;;17.13;100.00;98790.94;2090179;28;20442;-74
2021/07/25 02:24:49;;;;;;;36.07;32.27;;;;;;;17.17;100.00;98793.72;2090094;28;20218;-74
2021/07/25 02:25:50;;;;;;;37.57;32.13;;;;;;;17.17;100.00;98793.72;2089235;28;20461;-76
2021/07/25 02:26:52;;;;;;;36.83;32.97;;;;;;;17.17;100.00;98793.72;2089418;28;20230;-74
2021/07/25 02:27:53;;;;;;;38.07;32.67;;;;;;;17.26;100.00;98791.63;2089542;28;20515;-74
2021/07/25 02:28:54;;;;;;;35.27;31.63;;;;;;;17.35;100.00;98794.94;2090098;28;20480;-74
2021/07/25 02:29:56;;;;;;;36.50;31.60;;;;;;;17.47;100.00;98796.78;2089396;28;20461;-74
2021/07/25 02:30:56;;;;;;;35.17;31.70;;;;;;;17.44;100.00;98792.84;2089405;28;21781;-74
2021/07/25 02:31:58;;;;;;;36.53;32.37;;;;;;;17.51;100.00;98779.56;2090113;28;20452;-75
2021/07/25 02:32:58;;;;;;;35.67;32.13;;;;;;;17.51;100.00;98789.56;2089117;28;20704;-74
2021/07/25 02:34:00;;;;;;;35.93;32.10;;;;;;;17.47;100.00;98792.19;2089189;28;20437;-74
2021/07/25 02:35:01;;;;;;;36.30;32.43;;;;;;;17.31;100.00;98785.22;2089076;28;20634;-74
2021/07/25 02:36:02;;;;;;;36.17;32.37;;;;;;;17.21;100.00;98790.00;2089187;28;20441;-74
2021/07/25 02:37:05;;;;;;;36.00;32.20;;;;;;;17.10;100.00;98790.81;2090039;28;20219;-74
2021/07/25 02:38:06;;;;;;;37.57;33.57;;;;;;;17.01;100.00;98790.19;2089280;28;20808;-74
2021/07/25 02:39:07;;;;;;;37.03;33.20;;;;;;;17.06;100.00;98789.97;2088883;28;20469;-75
2021/07/25 02:40:10;;;;;;;36.03;32.30;;;;;;;17.02;100.00;98791.75;2089928;28;20456;-74
2021/07/25 02:41:11;;;;;;;36.33;32.43;;;;;;;16.98;100.00;98790.91;2089191;28;20219;-74
2021/07/25 02:42:13;;;;;;;36.83;32.73;;;;;;;16.89;100.00;98793.75;2080883;28;20468;-74
2021/07/25 02:43:13;;;;;;;37.03;33.07;;;;;;;16.79;100.00;98791.53;2080791;28;20624;-74
2021/07/25 02:44:15;;;;;;;38.93;34.73;;;;;;;16.78;100.00;98793.47;2089262;28;20472;-75
2021/07/25 02:45:15;;;;;;;37.43;33.93;;;;;;;16.87;100.00;98791.41;2090093;28;20302;-75
2021/07/25 02:46:17;;;;;;;38.53;32.57;;;;;;;16.91;100.00;98792.25;2089067;28;20592;-75
2021/07/25 02:47:18;;;;;;;38.50;34.50;;;;;;;16.82;100.00;98791.63;2081109;28;20306;-74
2021/07/25 02:48:20;;;;;;;39.57;35.23;;;;;;;16.75;100.00;98791.44;2089320;28;20961;-74
2021/07/25 02:49:20;;;;;;;38.83;34.77;;;;;;;16.81;100.00;98787.38;2089799;28;20540;-75
2021/07/25 02:50:22;;;;;;;38.73;34.67;;;;;;;16.81;100.00;98792.75;2089985;28;20449;-75
2021/07/25 02:51:23;;;;;;;40.13;34.17;;;;;;;16.74;100.00;98791.78;2088609;28;20222;-74
2021/07/25 02:52:26;;;;;;;38.30;34.17;;;;;;;16.88;100.00;98798.34;2089068;28;20455;-74
2021/07/25 02:53:26;;;;;;;35.97;32.20;;;;;;;17.01;100.00;98798.28;2089806;28;20452;-75
2021/07/25 02:54:28;;;;;;;39.60;34.90;;;;;;;17.03;100.00;98793.31;2089999;28;20445;-75
2021/07/25 02:55:29;;;;;;;39.33;35.20;;;;;;;16.94;100.00;98797.00;2089752;28;20230;-75
2021/07/25 02:56:30;;;;;;;38.40;34.30;;;;;;;16.91;100.00;98797.66;2089751;28;20462;-74
2021/07/25 02:57:31;;;;;;;39.07;33.83;;;;;;;16.88;100.00;98786.78;2089879;28;20318;-75
2021/07/25 02:58:32;;;;;;;38.63;34.43;;;;;;;16.79;100.00;98789.63;2089067;28;20472;-74
2021/07/25 02:59:33;;;;;;;41.77;33.57;;;;;;;16.75;100.00;98783.34;2089146;28;20230;-75
2021/07/25 03:00:35;;;;;;;40.20;34.37;;;;;;;16.74;100.00;98792.56;2089174;28;21010;-75
2021/07/25 03:01:35;;;;;;;38.57;34.37;;;;;;;16.81;100.00;98784.69;2080629;28;20279;-75
2021/07/25 03:02:37;;;;;;;38.17;34.03;;;;;;;16.92;100.00;98782.25;2088927;28;20465;-74
2021/07/25 03:03:39;;;;;;;39.83;35.07;;;;;;;16.89;100.00;98780.28;2088561;28;20238;-75
2021/07/25 03:04:41;;;;;;;40.37;32.93;;;;;;;16.84;100.00;98780.50;2089842;28;20461;-74
2021/07/25 03:05:42;;;;;;;43.70;35.10;;;;;;;16.88;100.00;98781.41;2089865;28;20480;-74
2021/07/25 03:06:44;;;;;;;37.43;33.27;;;;;;;16.83;100.00;98782.41;2089808;28;20453;-74
2021/07/25 03:07:46;;;;;;;40.10;36.00;;;;;;;16.78;100.00;98790.75;2089832;28;20261;-75
2021/07/25 03:08:47;;;;;;;37.97;33.83;;;;;;;16.67;100.00;98789.63;2088967;28;20445;-74
2021/07/25 03:09:48;;;;;;;40.93;36.53;;;;;;;16.59;100.00;98785.19;2088898;28;20449;-75
2021/07/25 03:10:49;;;;;;;42.73;38.17;;;;;;;16.53;100.00;98787.34;2089583;28;20541;-75
2021/07/25 03:11:50;;;;;;;43.73;37.40;;;;;;;16.47;100.00;98783.31;2088529;28;20302;-75
2021/07/25 03:12:52;;;;;;;44.33;39.53;;;;;;;16.42;100.00;98780.06;2080331;28;20466;-75
2021/07/25 03:13:52;;;;;;;47.73;41.03;;;;;;;16.39;100.00;98784.22;2080428;28;20243;-74
2021/07/25 03:14:54;;;;;;;45.53;40.63;;;;;;;16.35;100.00;98786.84;2089118;28;20454;-74
2021/07/25 03:15:55;;;;;;;48.27;41.43;;;;;;;16.34;100.00;98785.28;2089589;28;20301;-74
2021/07/25 03:16:56;;;;;;;49.33;42.10;;;;;;;16.34;100.00;98789.88;2089425;28;20449;-74
2021/07/25 03:17:57;;;;;;;47.93;42.77;;;;;;;16.31;100.00;98787.84;2088763;28;20246;-74
2021/07/25 03:18:58;;;;;;;53.07;42.47;;;;;;;16.29;100.00;98793.56;2088994;28;20449;-74
2021/07/25 03:19:59;;;;;;;50.13;40.33;;;;;;;16.32;100.00;98800.97;2089102;28;20302;-74
2021/07/25 03:21:02;;;;;;;44.67;39.17;;;;;;;16.46;100.00;98794.44;2089028;28;20452;-74
2021/07/25 03:22:04;;;;;;;42.53;37.83;;;;;;;16.55;100.00;98795.06;2089099;28;20226;-75
2021/07/25 03:23:07;;;;;;;48.90;38.67;;;;;;;16.61;100.00;98799.09;2088924;28;20462;-74
2021/07/25 03:24:08;;;;;;;45.10;39.43;;;;;;;16.59;100.00;98796.75;2089288;28;20539;-74
2021/07/25 03:25:10;;;;;;;47.17;40.27;;;;;;;16.54;100.00;98786.22;2088770;28;20457;-74
2021/07/25 03:26:11;;;;;;;45.77;39.50;;;;;;;16.53;100.00;98795.44;2080569;28;20234;-74
2021/07/25 03:27:12;;;;;;;47.30;38.40;;;;;;;16.54;100.00;98793.50;2088667;28;20463;-74
2021/07/25 03:28:13;;;;;;;43.73;37.93;;;;;;;16.49;100.00;98788.34;2088726;28;20700;-74
2021/07/25 03:29:15;;;;;;;50.07;41.50;;;;;;;16.49;100.00;98796.44;2089585;28;20788;-75
2021/07/25 03:30:15;;;;;;;49.87;40.70;;;;;;;16.49;100.00;98786.44;2089558;28;20218;-75
2021/07/25 03:31:17;;;;;;;45.23;39.63;;;;;;;16.59;100.00;98791.38;2089113;28;20959;-74
2021/07/25 03:32:18;;;;;;;55.70;40.37;;;;;;;16.64;100.00;98788.41;2080738;28;20258;-75
2021/07/25 03:33:20;;;;;;;47.33;39.03;;;;;;;16.71;100.00;98795.94;2088838;28;21013;-74
2021/07/25 03:34:21;;;;;;;47.53;39.70;;;;;;;16.77;100.00;98801.91;2089368;28;20549;-74
2021/07/25 03:35:23;;;;;;;42.53;37.83;;;;;;;16.78;100.00;98804.25;2089216;28;20450;-73
2021/07/25 03:36:25;;;;;;;44.60;39.97;;;;;;;16.78;100.00;98792.69;2089469;28;20223;-74
2021/07/25 03:37:25;;;;;;;44.57;39.77;;;;;;;16.85;100.00;98793.66;2089641;28;20471;-75
2021/07/25 03:38:28;;;;;;;49.53;40.47;;;;;;;16.90;100.00;98798.00;2088636;28;20504;-74
2021/07/25 03:39:30;;;;;;;47.97;41.57;;;;;;;16.85;100.00;98806.31;2088792;28;20677;-75
2021/07/25 03:40:32;;;;;;;46.93;40.63;;;;;;;16.85;100.00;98804.44;2088272;28;20446;-74
2021/07/25 03:41:33;;;;;;;58.57;40.90;;;;;;;16.85;100.00;98809.84;2088591;28;20951;-75
2021/07/25 03:42:34;;;;;;;50.17;41.57;;;;;;;16.85;100.00;98804.44;2089430;28;20767;-75
2021/07/25 03:43:35;;;;;;;46.90;39.03;;;;;;;16.91;100.00;98808.44;2089459;28;20238;-74
2021/07/25 03:44:37;;;;;;;50.50;39.37;;;;;;;16.85;100.00;98804.44;2089568;28;20458;-75
2021/07/25 03:45:41;;;;;;;46.80;40.63;;;;;;;16.82;100.00;98805.09;2089018;28;20230;-74
2021/07/25 03:46:42;;;;;;;45.93;39.97;;;;;;;16.76;100.00;98806.47;2089378;28;20499;-74
2021/07/25 03:47:43;;;;;;;47.17;39.47;;;;;;;16.77;100.00;98801.91;2089417;28;20807;-75
2021/07/25 03:48:45;;;;;;;49.87;41.40;;;;;;;16.70;100.00;98807.06;2089386;28;20457;-74
2021/07/25 03:49:45;;;;;;;48.53;42.93;;;;;;;16.66;100.00;98806.94;2088901;28;20309;-75
2021/07/25 03:50:47;;;;;;;44.03;39.23;;;;;;;16.72;100.00;98805.59;2080348;28;20465;-75
2021/07/25 03:51:48;;;;;;;50.93;40.13;;;;;;;16.80;100.00;98812.75;2088761;28;20352;-74
2021/07/25 03:52:49;;;;;;;47.60;41.37;;;;;;;16.79;100.00;98811.19;2089241;28;20975;-74
2021/07/25 03:53:51;;;;;;;45.67;39.93;;;;;;;16.92;100.00;98818.09;2088820;28;20309;-74
2021/07/25 03:54:53;;;;;;;47.13;38.63;;;;;;;16.92;100.00;98806.53;2088237;28;20970;-74
2021/07/25 03:55:54;;;;;;;43.83;39.17;;;;;;;16.86;100.00;98811.41;2088125;28;20466;-74
2021/07/25 03:56:55;;;;;;;46.33;40.30;;;;;;;16.91;100.00;98819.22;2088447;28;20452;-74
2021/07/25 03:57:56;;;;;;;46.73;40.97;;;;;;;16.87;100.00;98818.34;2080331;28;20257;-74
2021/07/25 03:58:58;;;;;;;48.63;41.87;;;;;;;16.81;100.00;98814.31;2079905;28;20451;-74
2021/07/25 03:59:58;;;;;;;43.70;39.00;;;;;;;16.90;100.00;98820.34;2088644;28;20253;-75
2021/07/25 04:01:00;;;;;;;45.80;40.07;;;;;;;16.88;100.00;98822.59;2089190;28;20445;-75
2021/07/25 04:02:01;;;;;;;43.20;38.63;;;;;;;16.89;100.00;98813.38;2088578;28;20314;-74
2021/07/25 04:03:02;;;;;;;45.97;40.30;;;;;;;17.10;100.00;98823.16;2080219;28;20473;-74
2021/07/25 04:04:03;;;;;;;42.33;37.80;;;;;;;17.04;100.00;98814.56;2088418;28;20222;-74
2021/07/25 04:05:06;;;;;;;48.83;40.43;;;;;;;16.97;100.00;98819.75;2088672;28;20467;-75
2021/07/25 04:06:07;;;;;;;45.13;39.70;;;;;;;16.92;100.00;98815.38;2088862;28;20226;-72
2021/07/25 04:07:08;;;;;;;43.80;38.83;;;;;;;16.89;100.00;98821.47;2088643;28;20556;-74
2021/07/25 04:08:09;;;;;;;43.70;38.90;;;;;;;16.89;100.00;98824.16;2088513;28;20614;-74
2021/07/25 04:09:13;;;;;;;49.90;43.57;;;;;;;16.90;100.00;98822.25;2089222;28;20453;-74
2021/07/25 04:10:14;;;;;;;46.17;41.20;;;;;;;16.97;100.00;98822.47;2088562;28;20544;-74
2021/07/25 04:11:17;;;;;;;44.57;39.57;;;;;;;17.24;100.00;98823.56;2088399;28;20454;-74
2021/07/25 04:12:18;;;;;;;47.73;42.30;;;;;;;17.22;100.00;98817.72;2089268;28;20456;-74
2021/07/25 04:13:19;;;;;;;49.23;41.27;;;;;;;17.23;100.00;98820.06;2089061;28;21040;-74
2021/07/25 04:14:20;;;;;;;49.17;43.50;;;;;;;17.19;100.00;98813.78;2088334;28;20246;-74
2021/07/25 04:15:21;;;;;;;48.47;41.77;;;;;;;17.31;100.00;98823.75;2088473;28;20434;-74
2021/07/25 04:16:22;;;;;;;46.00;40.37;;;;;;;17.27;100.00;98817.47;2088081;28;20676;-74
2021/07/25 04:17:24;;;;;;;47.90;42.13;;;;;;;17.30;100.00;98813.31;2088419;28;20852;-74
2021/07/25 04:18:24;;;;;;;45.83;39.63;;;;;;;17.40;100.00;98818.97;2088543;28;20705;-74
2021/07/25 04:19:28;;;;;;;50.57;41.67;;;;;;;17.42;100.00;98824.00;2088691;28;20793;-74
2021/07/25 04:20:28;;;;;;;48.40;41.70;;;;;;;17.43;100.00;98812.88;2088462;28;20287;-74
2021/07/25 04:21:31;;;;;;;50.23;42.73;;;;;;;17.43;100.00;98820.97;2088989;28;20450;-74
2021/07/25 04:22:33;;;;;;;52.33;40.93;;;;;;;17.48;100.00;98812.63;2089210;28;20242;-74
2021/07/25 04:23:34;;;;;;;49.33;38.13;;;;;;;17.66;100.00;98814.97;2089090;28;20873;-75
2021/07/25 04:24:36;;;;;;;44.63;39.73;;;;;;;17.70;100.00;98813.94;2089171;28;20536;-74
2021/07/25 04:25:38;;;;;;;43.97;39.17;;;;;;;17.76;100.00;98819.88;2088821;28;20504;-74
2021/07/25 04:26:40;;;;;;;41.73;37.17;;;;;;;17.98;100.00;98815.75;2088249;28;20591;-74
2021/07/25 04:27:42;;;;;;;45.47;38.37;;;;;;;17.99;100.00;98818.13;2088392;28;21072;-74
2021/07/25 04:28:43;;;;;;;40.03;35.97;;;;;;;18.04;100.00;98815.13;2089061;28;20449;-74
2021/07/25 04:29:45;;;;;;;43.03;38.43;;;;;;;18.11;100.00;98814.50;2088936;28;20876;-75
2021/07/25 04:30:46;;;;;;;42.33;37.97;;;;;;;18.21;100.00;98818.59;2088325;28;20500;-75
2021/07/25 04:31:48;;;;;;;42.50;38.10;;;;;;;18.22;100.00;98817.44;2088432;28;20962;-74
2021/07/25 04:32:49;;;;;;;45.73;39.10;;;;;;;18.18;100.00;98817.38;2089022;28;20461;-74
2021/07/25 04:33:53;;;;;;;39.80;35.67;;;;;;;18.31;100.00;98818.81;2089007;28;20466;-75
2021/07/25 04:34:54;;;;;;;45.77;38.83;;;;;;;18.31;100.00;98818.81;2088531;28;20229;-74
2021/07/25 04:35:56;;;;;;;39.43;35.33;;;;;;;18.32;100.00;98811.50;2089029;28;20449;-75
2021/07/25 04:36:59;;;;;;;41.30;36.80;;;;;;;18.32;100.00;98814.19;2088094;28;20461;-74
2021/07/25 04:38:01;;;;;;;45.50;39.07;;;;;;;18.31;100.00;98815.34;2088369;28;20931;-74
2021/07/25 04:39:06;;;;;;;43.03;38.40;;;;;;;18.32;100.00;98814.19;2088502;28;20930;-75
2021/07/25 04:40:10;;;;;;;45.67;40.87;;;;;;;18.39;100.00;98811.66;2080136;28;20540;-74
2021/07/25 04:41:12;;;;;;;47.77;41.17;;;;;;;18.37;100.00;98805.81;2088422;28;20987;-74